createdAt,value
2023-02-25T00:01:18.188Z,97278.04823400831
2023-02-25T00:04:17.252Z,97279.83134937158
2023-02-25T00:07:17.217Z,97281.721486544
2023-02-25T00:11:18.455Z,97286.57096589939
2023-02-25T00:14:16.844Z,97282.73795031376
2023-02-25T00:17:17.230Z,97282.887860446
2023-02-25T00:21:17.242Z,97281.38236630133
2023-02-25T00:24:17.454Z,97272.9995554667
2023-02-25T00:27:17.453Z,97274.66816779085
2023-02-25T00:31:18.829Z,97274.78892757648
2023-02-25T00:34:18.368Z,97275.64274099532
2023-02-25T00:37:17.546Z,97269.13043621888
2023-02-25T00:41:20.073Z,97258.79412152375
2023-02-25T00:44:17.536Z,97256.7590061913
2023-02-25T00:47:19.025Z,97256.26689563373
2023-02-25T00:51:18.574Z,97249.90764734683
2023-02-25T00:54:17.378Z,97242.808547569
2023-02-25T00:57:17.544Z,97238.20715263658
2023-02-25T01:01:20.218Z,97230.87492273682
2023-02-25T01:04:16.886Z,97225.97832640767
2023-02-25T01:07:18.127Z,97220.81369317522
2023-02-25T01:11:18.872Z,97217.84884593311
2023-02-25T01:14:19.377Z,97210.82453672687
2023-02-25T01:17:17.094Z,97212.87695049506
2023-02-25T01:21:20.488Z,97191.85169328691
2023-02-25T01:24:20.273Z,97189.54617298707
2023-02-25T01:27:17.006Z,97190.88951925542
2023-02-25T01:31:19.438Z,97190.08756444814
2023-02-25T01:34:17.920Z,97182.57316047492
2023-02-25T01:37:17.262Z,97178.09947645137
2023-02-25T01:41:17.175Z,97165.23343513912
2023-02-25T01:44:19.055Z,97160.30381633036
2023-02-25T01:47:19.766Z,97154.40552556755
2023-02-25T01:51:16.773Z,97143.10101914871
2023-02-25T01:54:18.909Z,97146.16839483737
2023-02-25T01:57:18.599Z,97147.60722154104
2023-02-25T02:01:20.504Z,97139.17923969518
2023-02-25T02:04:19.279Z,97141.42494965873
2023-02-25T02:07:18.188Z,97139.15395422056
2023-02-25T02:11:16.539Z,97124.26741107971
2023-02-25T02:14:20.270Z,97115.51193200673
2023-02-25T02:17:22.324Z,97122.00278136403
2023-02-25T02:21:39.943Z,97118.96697600275
2023-02-25T02:31:44.834Z,97117.32144161517
2023-02-25T02:34:30.771Z,97115.01258421675
2023-02-25T02:37:28.693Z,97114.95051762249
2023-02-25T02:41:27.191Z,97107.57052332183
2023-02-25T02:44:22.615Z,97093.12558411279
2023-02-25T02:47:23.791Z,97094.7086227021
2023-02-25T02:51:21.019Z,97080.63885765694
2023-02-25T02:54:20.263Z,97083.10745569321
2023-02-25T02:57:20.721Z,97079.21888202129
2023-02-25T03:01:20.383Z,97078.38186890428
2023-02-25T03:04:21.455Z,97073.13220648245
2023-02-25T03:07:17.858Z,97075.78255010677
2023-02-25T03:11:16.934Z,97061.32395074602
2023-02-25T03:14:17.476Z,97065.66145391423
2023-02-25T03:17:20.796Z,97062.87565523434
2023-02-25T03:21:20.710Z,97067.57231810172
2023-02-25T03:24:22.020Z,97068.84669865652
2023-02-25T03:27:24.577Z,97071.64638265409
2023-02-25T03:31:22.548Z,97081.90516343665
2023-02-25T03:34:21.875Z,97078.65801243995
2023-02-25T03:37:21.403Z,97075.8897446581
2023-02-25T03:41:20.805Z,97061.50042130188
2023-02-25T03:44:23.201Z,97054.57660571396
2023-02-25T03:47:18.776Z,97043.85062240507
2023-02-25T03:51:21.525Z,97037.37452766992
2023-02-25T03:54:17.338Z,97044.45486358386
2023-02-25T03:57:17.538Z,97049.03280086843
2023-02-25T04:01:21.010Z,97097.38668275956
2023-02-25T04:04:16.859Z,97132.23569824781
2023-02-25T04:07:16.845Z,97118.72558555186
2023-02-25T04:11:16.836Z,97087.36619917692
2023-02-25T04:14:18.761Z,97078.19495893811
2023-02-25T04:17:17.257Z,97032.7103651776
2023-02-25T04:21:26.664Z,97079.62540070755
2023-02-25T04:24:17.430Z,97063.32956198731
2023-02-25T04:27:17.709Z,97071.36072561119
2023-02-25T04:31:16.957Z,97113.71489928606
2023-02-25T04:34:17.479Z,97129.57834366751
2023-02-25T04:37:17.785Z,97130.16473672727
2023-02-25T04:41:17.186Z,97133.9876652328
2023-02-25T04:44:17.284Z,97127.56619260751
2023-02-25T04:47:19.363Z,97118.79178760655
2023-02-25T04:51:17.518Z,97115.11743251771
2023-02-25T04:54:19.624Z,97113.7716848839
2023-02-25T04:57:16.701Z,97117.50511027339
2023-02-25T05:01:17.191Z,97120.3196189018
2023-02-25T05:04:17.077Z,97105.88443396537
2023-02-25T05:07:17.119Z,97110.85738753178
2023-02-25T05:11:17.062Z,97089.10696033777
2023-02-25T05:14:17.452Z,97063.82155986555
2023-02-25T05:17:17.029Z,97044.05324804677
2023-02-25T05:21:18.718Z,97027.82323040022
2023-02-25T05:24:18.374Z,97026.5346122404
2023-02-25T05:27:17.206Z,97019.78195110896
2023-02-25T05:31:17.606Z,97007.85648819126
2023-02-25T05:34:17.413Z,97013.96171673191
2023-02-25T05:37:17.378Z,97003.64464424145
2023-02-25T05:41:16.549Z,96991.30525729852
2023-02-25T05:44:17.324Z,96980.26492985296
2023-02-25T05:47:17.043Z,96989.81738313613
2023-02-25T05:51:18.462Z,96988.02928660928
2023-02-25T05:54:16.806Z,96983.96726447166
2023-02-25T05:57:16.775Z,96976.94272470563
2023-02-25T06:01:19.346Z,96977.47714663038
2023-02-25T06:04:17.434Z,96988.60063455097
2023-02-25T06:07:17.463Z,96973.57330718002
2023-02-25T06:11:19.241Z,96963.29847059696
2023-02-25T06:14:16.777Z,96970.72349387476
2023-02-25T06:17:16.611Z,96967.84057906923
2023-02-25T06:21:18.139Z,96962.2730415396
2023-02-25T06:24:19.793Z,96951.51616914474
2023-02-25T06:27:17.242Z,96967.40102363839
2023-02-25T06:31:19.481Z,96970.18094150614
2023-02-25T06:34:17.624Z,96977.60510324802
2023-02-25T06:37:17.237Z,96975.40212095047
2023-02-25T06:41:19.816Z,96972.5845465756
2023-02-25T06:44:17.316Z,96978.22833329375
2023-02-25T06:47:17.418Z,96970.81245406986
2023-02-25T06:51:16.649Z,96964.10711128438
2023-02-25T06:54:17.581Z,96959.37386871631
2023-02-25T06:57:16.948Z,96954.39669171732
2023-02-25T07:01:17.185Z,96962.67432027792
2023-02-25T07:04:19.223Z,96965.88894525272
2023-02-25T07:07:17.152Z,96958.60988059534
2023-02-25T07:11:29.576Z,96950.92085156299
2023-02-25T07:14:19.045Z,96955.57878936142
2023-02-25T07:17:17.291Z,96956.04170334116
2023-02-25T07:21:18.624Z,96960.71295843332
2023-02-25T07:24:18.045Z,96960.2225157643
2023-02-25T07:27:17.850Z,96962.77652836328
2023-02-25T07:31:19.092Z,96981.53718430133
2023-02-25T07:34:17.478Z,96970.65816208623
2023-02-25T07:37:19.528Z,96983.41601194079
2023-02-25T07:41:18.960Z,96983.5472963028
2023-02-25T07:44:17.539Z,96979.50107277515
2023-02-25T07:47:17.434Z,96975.44577832457
2023-02-25T07:51:20.655Z,96978.68980032449
2023-02-25T07:54:17.860Z,96972.81838389486
2023-02-25T07:57:19.580Z,96975.54598219525
2023-02-25T08:01:22.936Z,96972.08474090292
2023-02-25T08:04:18.339Z,96963.89789498385
2023-02-25T08:07:18.138Z,96964.991520201
2023-02-25T08:11:19.473Z,96946.68996930917
2023-02-25T08:14:17.447Z,96924.9713214029
2023-02-25T08:17:20.908Z,96896.52556652945
2023-02-25T08:21:21.733Z,96867.97164516817
2023-02-25T08:24:21.836Z,96835.59597147116
2023-02-25T08:27:18.928Z,96825.75558630841
2023-02-25T08:31:19.327Z,96848.7642705648
2023-02-25T08:34:18.268Z,96895.35256067563
2023-02-25T08:37:18.009Z,96894.15582782433
2023-02-25T08:41:18.018Z,96883.0017493021
2023-02-25T08:44:16.816Z,96893.83071610176
2023-02-25T08:47:17.000Z,96884.705257009
2023-02-25T08:51:16.929Z,96878.88231131782
2023-02-25T08:54:17.040Z,96887.49662235845
2023-02-25T08:57:17.074Z,96894.91936307242
2023-02-25T09:01:17.531Z,96893.77007399808
2023-02-25T09:04:20.005Z,96892.35229455121
2023-02-25T09:07:17.793Z,96897.86061814192
2023-02-25T09:11:17.408Z,96898.57366633283
2023-02-25T09:14:17.470Z,96908.36652111693
2023-02-25T09:17:16.711Z,96915.83690070541
2023-02-25T09:21:17.788Z,96915.90807983222
2023-02-25T09:24:17.475Z,96914.05902090819
2023-02-25T09:27:17.021Z,96918.27794202331
2023-02-25T09:31:17.914Z,96919.22791205783
2023-02-25T09:34:17.431Z,96932.51846672775
2023-02-25T09:37:17.957Z,96918.80016848749
2023-02-25T09:41:24.945Z,96919.58494540202
2023-02-25T09:44:19.838Z,96916.95775980593
2023-02-25T09:47:20.694Z,96927.80594076311
2023-02-25T09:51:20.382Z,96922.49985899677
2023-02-25T09:54:24.461Z,96918.08300820275
2023-02-25T09:57:19.289Z,96917.31139318513
2023-02-25T10:01:25.138Z,96923.94488393707
2023-02-25T10:04:24.193Z,96917.4324476571
2023-02-25T10:07:22.305Z,96922.77960380213
2023-02-25T10:11:26.748Z,96930.17481414998
2023-02-25T10:14:34.605Z,96940.50054832417
2023-02-25T10:17:25.611Z,96942.77739924901
2023-02-25T10:21:28.886Z,96927.52741012265
2023-02-25T10:24:27.425Z,96919.71076237285
2023-02-25T10:27:23.981Z,96929.67645800194
2023-02-25T10:31:19.266Z,96930.21783806346
2023-02-25T10:34:22.434Z,96938.61252000438
2023-02-25T10:37:21.254Z,96935.27736427973
2023-02-25T10:41:17.509Z,96940.00278041833
2023-02-25T10:44:16.735Z,96936.6820180005
2023-02-25T10:51:16.997Z,96925.19465344437
2023-02-25T10:54:17.184Z,96925.43290129829
2023-02-25T10:57:22.707Z,96922.59604847165
2023-02-25T11:01:20.114Z,96914.29447059595
2023-02-25T11:04:20.271Z,96911.60948225654
2023-02-25T11:07:31.525Z,96906.59708866701
2023-02-25T11:11:21.496Z,96904.95860353576
2023-02-25T11:14:17.365Z,96903.91436371005
2023-02-25T11:17:20.814Z,96897.05043010449
2023-02-25T11:21:26.728Z,96896.7392637977
2023-02-25T11:24:28.193Z,96888.13960472123
2023-02-25T11:27:25.916Z,96884.79075842821
2023-02-25T11:31:19.929Z,96881.78727113944
2023-02-25T11:34:21.035Z,96884.93177816199
2023-02-25T11:41:20.996Z,96875.71256934383
2023-02-25T11:44:23.949Z,96869.17082601612
2023-02-25T11:47:24.924Z,96862.90253767966
2023-02-25T11:51:25.611Z,96855.28482884027
2023-02-25T11:54:28.803Z,96850.36511441086
2023-02-25T11:57:31.278Z,96844.327334918
2023-02-25T12:01:31.348Z,96842.59244966932
2023-02-25T12:04:53.459Z,96832.30833656504
2023-02-25T12:22:51.465Z,96792.22828600125
2023-02-25T12:24:48.732Z,96782.05693379589
2023-02-25T12:27:37.354Z,96778.40338686656
2023-02-25T12:41:31.672Z,96750.57196467527
2023-02-25T12:44:41.593Z,96748.7019756904
2023-02-25T12:47:24.401Z,96736.08286268229
2023-02-25T12:51:42.887Z,96732.25782099017
2023-02-25T12:54:36.229Z,96731.59047781397
2023-02-25T12:57:36.130Z,96727.27903567368
2023-02-25T13:01:29.473Z,96718.74785899711
2023-02-25T13:04:46.387Z,96712.89895263764
2023-02-25T13:07:33.317Z,96704.85479402523
2023-02-25T13:11:30.411Z,96697.46361297046
2023-02-25T13:14:31.691Z,96684.74090736476
2023-02-25T13:17:33.556Z,96675.64239823628
2023-02-25T13:21:31.485Z,96676.36808547325
2023-02-25T13:24:32.844Z,96667.56156777445
2023-02-25T13:27:41.990Z,96663.6947748495
2023-02-25T13:31:28.053Z,96666.11116099583
2023-02-25T13:34:28.201Z,96659.80581722768
2023-02-25T13:37:29.610Z,96651.42106267648
2023-02-25T13:41:33.211Z,96607.61786928699
2023-02-25T13:44:31.751Z,96594.33992816276
2023-02-25T13:47:36.421Z,96583.85121575258
2023-02-25T14:01:46.564Z,96506.89573970316
2023-02-25T14:04:42.945Z,96500.25300136193
2023-02-25T14:07:29.919Z,96493.4389564544
2023-02-25T14:11:32.529Z,96490.18562617636
2023-02-25T14:14:32.196Z,96490.29073092497
2023-02-25T14:17:48.336Z,96507.10715584726
2023-02-25T14:21:53.081Z,96557.04507213479
2023-02-25T14:24:23.305Z,96602.71313083835
2023-02-25T14:27:26.942Z,96615.69802183959
2023-02-25T14:31:21.955Z,96622.6767951906
2023-02-25T14:34:29.732Z,96619.23281795692
2023-02-25T14:37:36.887Z,96621.75625441145
2023-02-25T14:41:34.678Z,96626.60887241417
2023-02-25T14:44:24.949Z,96622.85244731093
2023-02-25T14:47:25.271Z,96624.10070554195
2023-02-25T14:51:37.337Z,96619.28322407354
2023-02-25T14:55:06.224Z,96618.11736631073
2023-02-25T14:57:41.099Z,96614.19904918196
2023-02-25T15:11:38.197Z,96613.18637558665
2023-02-25T15:21:37.738Z,96600.97630361913
2023-02-25T15:24:54.052Z,96615.55647096473
2023-02-25T15:27:46.666Z,96608.91269691767
2023-02-25T15:31:29.459Z,96611.10438185581
2023-02-25T15:34:33.072Z,96610.0350451151
2023-02-25T15:37:25.916Z,96618.67166220203
2023-02-25T15:41:44.241Z,96619.23921639839
2023-02-25T15:44:49.099Z,96616.01013161332
2023-02-25T15:47:27.134Z,96614.82866909669
2023-02-25T15:51:41.121Z,96603.81571811566
2023-02-25T15:54:50.215Z,96598.33780698267
2023-02-25T15:57:37.923Z,96596.86376700325
2023-02-25T16:01:36.211Z,96581.79222800942
2023-02-25T16:04:49.800Z,96578.69340312225
2023-02-25T16:07:20.326Z,96576.32155024249
2023-02-25T16:11:24.328Z,96571.46415156907
2023-02-25T16:14:23.644Z,96577.2190752169
2023-02-25T16:17:19.768Z,96568.63006244293
2023-02-25T16:21:22.796Z,96568.938204106
2023-02-25T16:24:18.820Z,96581.84785854201
2023-02-25T16:27:32.897Z,96593.20333623087
2023-02-25T16:31:20.655Z,96597.53165452195
2023-02-25T16:34:23.707Z,96595.74881485915
2023-02-25T16:37:22.537Z,96590.58418749302
2023-02-25T16:41:16.776Z,96585.03151407512
2023-02-25T16:44:19.656Z,96584.99957121258
2023-02-25T16:47:23.223Z,96585.25091993556
2023-02-25T16:51:24.038Z,96584.53243456877
2023-02-25T16:54:21.341Z,96588.17179474539
2023-02-25T16:57:20.593Z,96585.80582561895
2023-02-25T17:01:22.506Z,96595.82405505257
2023-02-25T17:04:19.687Z,96591.35585153522
2023-02-25T17:07:23.981Z,96594.51531211413
2023-02-25T17:11:17.876Z,96594.7735205972
2023-02-25T17:14:16.583Z,96595.5493096631
2023-02-25T17:17:21.664Z,96595.75964161627
2023-02-25T17:21:22.260Z,96595.48449060819
2023-02-25T17:24:19.854Z,96590.89472785698
2023-02-25T17:27:18.776Z,96584.89106608984
2023-02-25T17:31:18.860Z,96581.80534688536
2023-02-25T17:34:19.079Z,96583.90898183156
2023-02-25T17:37:18.683Z,96584.73309255156
2023-02-25T17:41:18.378Z,96584.21376222796
2023-02-25T17:44:43.802Z,96589.81483577892
2023-02-25T17:47:20.987Z,96590.19969401712
2023-02-25T17:51:16.204Z,96585.20193695021
2023-02-25T17:54:21.690Z,96590.7764165005
2023-02-25T17:57:19.781Z,96580.48082179554
2023-02-25T18:01:26.467Z,96579.67845110086
2023-02-25T18:04:25.166Z,96576.32651008453
2023-02-25T18:07:20.699Z,96570.83886285927
2023-02-25T18:11:25.843Z,96572.54176922055
2023-02-25T18:14:24.550Z,96573.21888569546
2023-02-25T18:17:24.280Z,96577.28684191487
2023-02-25T18:21:16.736Z,96579.45192400595
2023-02-25T18:24:27.260Z,96577.99269931263
2023-02-25T18:27:22.877Z,96581.70418835145
2023-02-25T18:31:18.697Z,96577.756676342
2023-02-25T18:34:16.426Z,96576.154724846
2023-02-25T18:37:18.152Z,96580.05898550381
2023-02-25T18:41:16.475Z,96573.3499630885
2023-02-25T18:44:16.348Z,96572.15466074427
2023-02-25T18:47:17.188Z,96573.3316689035
2023-02-25T18:51:16.403Z,96581.16588996902
2023-02-25T18:54:17.606Z,96582.88124584407
2023-02-25T18:57:21.229Z,96582.99555084329
2023-02-25T19:01:21.705Z,96584.9887150006
2023-02-25T19:04:17.061Z,96583.61514550087
2023-02-25T19:07:16.380Z,96582.91042050174
2023-02-25T19:11:19.709Z,96578.94186340286
2023-02-25T19:14:17.210Z,96574.37624089995
2023-02-25T19:17:16.608Z,96571.45916153895
2023-02-25T19:21:18.366Z,96569.412564633
2023-02-25T19:24:16.602Z,96567.19282838207
2023-02-25T19:27:20.774Z,96568.01374849674
2023-02-25T19:31:18.079Z,96563.25877509682
2023-02-25T19:34:16.727Z,96568.50890253387
2023-02-25T19:37:19.052Z,96564.69635898816
2023-02-25T19:41:16.662Z,96565.30063038196
2023-02-25T19:44:17.945Z,96572.66452864122
2023-02-25T19:47:17.156Z,96570.9425176565
2023-02-25T19:51:16.629Z,96577.56681706711
2023-02-25T19:54:18.171Z,96575.65350534067
2023-02-25T19:57:17.079Z,96571.46966011633
2023-02-25T20:01:16.639Z,96562.67534761409
2023-02-25T20:04:16.985Z,96571.22170479754
2023-02-25T20:07:16.926Z,96572.54076159818
2023-02-25T20:11:18.732Z,96576.6372772233
2023-02-25T20:14:18.193Z,96573.93634816277
2023-02-25T20:17:19.128Z,96567.24905393484
2023-02-25T20:21:19.720Z,96564.26404969086
2023-02-25T20:24:17.403Z,96558.75870702285
2023-02-25T20:27:18.256Z,96559.68709228284
2023-02-25T20:31:18.667Z,96555.53897489987
2023-02-25T20:34:22.636Z,96552.23343720371
2023-02-25T20:37:20.616Z,96547.53336984308
2023-02-25T20:41:16.854Z,96541.96319948959
2023-02-25T20:44:17.362Z,96539.92215248883
2023-02-25T20:47:19.804Z,96542.33688429902
2023-02-25T20:51:16.980Z,96536.767095383
2023-02-25T20:54:19.203Z,96539.19063051711
2023-02-25T20:57:19.928Z,96537.80691714387
2023-02-25T21:01:17.365Z,96535.76931599966
2023-02-25T21:04:18.909Z,96527.43155676665
2023-02-25T21:07:16.590Z,96529.67044886196
2023-02-25T21:11:18.860Z,96524.90542395244
2023-02-25T21:14:18.200Z,96526.26326570312
2023-02-25T21:17:18.412Z,96522.57698734461
2023-02-25T21:21:21.034Z,96512.89423032453
2023-02-25T21:24:19.561Z,96516.3629807151
2023-02-25T21:27:18.850Z,96507.89567757808
2023-02-25T21:31:16.718Z,96509.65640873242
2023-02-25T21:34:16.546Z,96506.90364390239
2023-02-25T21:37:17.721Z,96505.2738725228
2023-02-25T21:41:17.729Z,96495.35990945369
2023-02-25T21:44:17.122Z,96490.8642510918
2023-02-25T21:47:16.837Z,96482.17288073778
2023-02-25T21:51:19.270Z,96475.37267850357
2023-02-25T21:54:17.286Z,96464.34741585201
2023-02-25T21:57:17.009Z,96457.74372396054
2023-02-25T22:01:20.419Z,96449.12291906566
2023-02-25T22:04:19.743Z,96448.30752723622
2023-02-25T22:07:17.182Z,96442.51354155158
2023-02-25T22:11:20.102Z,96444.93334551796
2023-02-25T22:14:17.547Z,96447.35316712334
2023-02-25T22:17:16.727Z,96449.54125885118
2023-02-25T22:21:18.434Z,96437.9776814701
2023-02-25T22:24:16.572Z,96435.13471119072
2023-02-25T22:27:16.456Z,96429.09392272065
2023-02-25T22:31:17.170Z,96426.16300926972
2023-02-25T22:34:16.206Z,96427.61423470965
2023-02-25T22:37:16.048Z,96419.29909144994
2023-02-25T22:41:18.100Z,96415.70673489136
2023-02-25T22:44:16.076Z,96411.45857681333
2023-02-25T22:47:16.310Z,96405.10347874624
2023-02-25T22:51:19.588Z,96407.07419139822
2023-02-25T22:54:18.473Z,96404.99805066052
2023-02-25T22:57:16.233Z,96399.58918198767
2023-02-25T23:01:19.441Z,96392.67815996395
2023-02-25T23:04:16.543Z,96392.72347562764
2023-02-25T23:07:17.175Z,96389.87865792765
2023-02-25T23:11:18.501Z,96383.51885976309
2023-02-25T23:14:16.347Z,96384.58067616614
2023-02-25T23:17:16.245Z,96381.26396493791
2023-02-25T23:21:20.158Z,96386.49702611892
2023-02-25T23:24:19.783Z,96383.35702747674
2023-02-25T23:27:17.254Z,96379.38182974565
2023-02-25T23:31:18.424Z,96379.58103836235
2023-02-25T23:34:19.535Z,96379.28287041359
2023-02-25T23:37:16.276Z,96382.94105262493
2023-02-25T23:41:16.670Z,96380.70459088388
2023-02-25T23:44:16.966Z,96373.6874086671
2023-02-25T23:47:17.677Z,96375.97527233738
2023-02-25T23:51:16.312Z,96376.37225502724
2023-02-25T23:54:19.690Z,96369.48811930807
2023-02-25T23:57:16.682Z,96367.35534654168
